Time,TemperatureF,DewpointF,PressureIn,WindDirection,WindDirectionDegrees,WindSpeedMPH,WindSpeedGustMPH,Humidity,HourlyPrecipIn,Conditions,Clouds,dailyrainin,SoftwareType,DateUTC
2013-05-25 00:07:00,53.3,40.0,30.25,SE,136,6.0,9.0,62,0.00,,,0.00,weatherlink.com 1.10,2013-05-25 05:07:00,
2013-05-25 00:22:00,53.1,40.0,30.25,SSE,147,4.0,7.0,62,0.00,,,0.00,weatherlink.com 1.10,2013-05-25 05:22:00,
2013-05-25 00:37:00,52.8,39.0,30.25,SE,142,5.0,8.0,59,0.00,,,0.00,weatherlink.com 1.10,2013-05-25 05:37:00,
2013-05-25 00:52:00,52.3,39.0,30.23,SE,139,7.0,8.0,60,0.00,,,0.00,weatherlink.com 1.10,2013-05-25 05:52:00,
2013-05-25 01:07:00,51.9,38.0,30.23,SE,140,4.0,8.0,60,0.00,,,0.00,weatherlink.com 1.10,2013-05-25 06:07:00,
2013-05-25 01:22:00,51.8,38.0,30.24,SE,143,4.0,6.0,59,0.00,,,0.00,weatherlink.com 1.10,2013-05-25 06:22:00,
2013-05-25 01:37:00,51.6,39.0,30.24,SE,140,1.0,4.0,62,0.00,,,0.00,weatherlink.com 1.10,2013-05-25 06:37:00,
2013-05-25 01:52:00,51.2,38.0,30.23,East,92,0.0,3.0,62,0.00,,,0.00,weatherlink.com 1.10,2013-05-25 06:52:00,
2013-05-25 02:07:00,51.0,37.0,30.25,SE,144,0.0,0.0,60,0.00,,,0.00,weatherlink.com 1.10,2013-05-25 07:07:00,
2013-05-25 02:22:00,50.9,39.0,30.27,SE,142,0.0,0.0,64,0.00,,,0.00,weatherlink.com 1.10,2013-05-25 07:22:00,
2013-05-25 02:37:00,50.4,39.0,30.26,SE,142,0.0,0.0,65,0.00,,,0.00,weatherlink.com 1.10,2013-05-25 07:37:00,
2013-05-25 02:52:00,50.3,38.0,30.26,SE,146,0.0,0.0,64,0.00,,,0.00,weatherlink.com 1.10,2013-05-25 07:52:00,
2013-05-25 03:07:00,50.0,42.0,30.25,SE,146,0.0,0.0,75,0.01,,,0.01,weatherlink.com 1.10,2013-05-25 08:07:00,
2013-05-25 03:22:00,48.3,42.0,30.26,SE,146,0.0,1.0,79,0.01,,,0.01,weatherlink.com 1.10,2013-05-25 08:22:00,
2013-05-25 03:38:00,47.5,43.0,30.26,SE,146,0.0,0.0,85,0.02,,,0.02,weatherlink.com 1.10,2013-05-25 08:38:00,
2013-05-25 03:53:00,46.9,42.0,30.27,SE,146,0.0,0.0,83,0.02,,,0.02,weatherlink.com 1.10,2013-05-25 08:53:00,
2013-05-25 04:08:00,46.7,42.0,30.26,SE,146,0.0,0.0,83,0.02,,,0.03,weatherlink.com 1.10,2013-05-25 09:08:00,
2013-05-25 04:23:00,46.4,42.0,30.26,SE,124,0.0,0.0,84,0.03,,,0.04,weatherlink.com 1.10,2013-05-25 09:23:00,
2013-05-25 04:38:00,45.9,42.0,30.26,ESE,122,0.0,1.0,86,0.04,,,0.06,weatherlink.com 1.10,2013-05-25 09:38:00,
2013-05-25 04:53:00,45.4,42.0,30.25,East,87,0.0,3.0,87,0.05,,,0.07,weatherlink.com 1.10,2013-05-25 09:53:00,
2013-05-25 05:08:00,45.2,42.0,30.26,East,87,0.0,0.0,87,0.04,,,0.07,weatherlink.com 1.10,2013-05-25 10:08:00,
2013-05-25 05:23:00,45.2,42.0,30.27,East,87,0.0,0.0,88,0.03,,,0.07,weatherlink.com 1.10,2013-05-25 10:23:00,
2013-05-25 05:38:00,45.7,42.0,30.29,SSE,147,0.0,3.0,88,0.01,,,0.07,weatherlink.com 1.10,2013-05-25 10:38:00,
2013-05-25 05:53:00,45.6,42.0,30.30,SSE,150,0.0,1.0,86,0.00,,,0.07,weatherlink.com 1.10,2013-05-25 10:53:00,
2013-05-25 06:08:00,45.9,41.0,30.31,SSE,153,0.0,2.0,84,0.00,,,0.07,weatherlink.com 1.10,2013-05-25 11:08:00,
2013-05-25 06:23:00,46.0,42.0,30.30,SE,139,0.0,3.0,86,0.00,,,0.07,weatherlink.com 1.10,2013-05-25 11:23:00,
2013-05-25 06:38:00,45.8,42.0,30.30,ESE,123,0.0,0.0,86,0.00,,,0.07,weatherlink.com 1.10,2013-05-25 11:38:00,
2013-05-25 06:53:00,46.3,41.0,30.31,South,181,2.0,3.0,83,0.00,,,0.07,weatherlink.com 1.10,2013-05-25 11:53:00,
2013-05-25 07:08:00,46.5,42.0,30.32,SSE,161,0.0,2.0,84,0.00,,,0.07,weatherlink.com 1.10,2013-05-25 12:08:00,
2013-05-25 07:23:00,46.4,43.0,30.32,SE,140,0.0,0.0,87,0.00,,,0.07,weatherlink.com 1.10,2013-05-25 12:23:00,
2013-05-25 07:38:00,46.1,42.0,30.32,SE,140,0.0,0.0,86,0.00,,,0.07,weatherlink.com 1.10,2013-05-25 12:38:00,
2013-05-25 07:53:00,46.5,42.0,30.32,SE,134,0.0,1.0,84,0.00,,,0.07,weatherlink.com 1.10,2013-05-25 12:53:00,
2013-05-25 08:08:00,46.9,42.0,30.31,SE,131,0.0,3.0,82,0.00,,,0.07,weatherlink.com 1.10,2013-05-25 13:08:00,
2013-05-25 08:23:00,47.5,41.0,30.30,SE,133,0.0,3.0,79,0.00,,,0.07,weatherlink.com 1.10,2013-05-25 13:23:00,
2013-05-25 08:38:00,48.2,41.0,30.31,ESE,103,0.0,2.0,77,0.00,,,0.07,weatherlink.com 1.10,2013-05-25 13:38:00,
2013-05-25 08:53:00,49.0,41.0,30.30,East,92,0.0,2.0,74,0.00,,,0.07,weatherlink.com 1.10,2013-05-25 13:53:00,
2013-05-25 09:08:00,49.7,42.0,30.30,ENE,76,0.0,0.0,75,0.00,,,0.07,weatherlink.com 1.10,2013-05-25 14:08:00,
2013-05-25 09:23:00,50.2,40.0,30.30,East,85,0.0,1.0,67,0.00,,,0.07,weatherlink.com 1.10,2013-05-25 14:23:00,
2013-05-25 09:38:00,50.4,40.0,30.29,ENE,70,0.0,0.0,68,0.00,,,0.07,weatherlink.com 1.10,2013-05-25 14:38:00,
2013-05-25 09:53:00,50.7,39.0,30.30,SE,127,0.0,2.0,65,0.00,,,0.07,weatherlink.com 1.10,2013-05-25 14:53:00,
2013-05-25 10:08:00,51.0,39.0,30.30,SE,127,0.0,1.0,63,0.00,,,0.07,weatherlink.com 1.10,2013-05-25 15:08:00,
2013-05-25 10:23:00,51.2,39.0,30.29,SE,133,0.0,3.0,63,0.00,,,0.07,weatherlink.com 1.10,2013-05-25 15:23:00,
2013-05-25 10:38:00,51.4,39.0,30.30,SSE,158,0.0,2.0,62,0.00,,,0.07,weatherlink.com 1.10,2013-05-25 15:38:00,
2013-05-25 10:53:00,51.7,39.0,30.31,SSE,166,3.0,4.0,63,0.00,,,0.07,weatherlink.com 1.10,2013-05-25 15:53:00,
2013-05-25 11:08:00,51.7,38.0,30.31,South,181,4.0,7.0,60,0.00,,,0.07,weatherlink.com 1.10,2013-05-25 16:08:00,
2013-05-25 11:23:00,51.7,40.0,30.30,South,173,4.0,8.0,64,0.00,,,0.07,weatherlink.com 1.10,2013-05-25 16:23:00,
2013-05-25 11:38:00,51.8,39.0,30.29,South,187,3.0,7.0,63,0.01,,,0.08,weatherlink.com 1.10,2013-05-25 16:38:00,
2013-05-25 11:53:00,52.1,39.0,30.28,SE,140,3.0,7.0,61,0.01,,,0.08,weatherlink.com 1.10,2013-05-25 16:53:00,
2013-05-25 12:08:00,52.8,41.0,30.26,SE,138,1.0,5.0,64,0.01,,,0.08,weatherlink.com 1.10,2013-05-25 17:08:00,
2013-05-25 12:23:00,53.3,41.0,30.25,SE,133,0.0,6.0,64,0.01,,,0.08,weatherlink.com 1.10,2013-05-25 17:23:00,
2013-05-25 12:38:00,53.8,41.0,30.23,ESE,113,1.0,6.0,62,0.00,,,0.08,weatherlink.com 1.10,2013-05-25 17:38:00,
2013-05-25 12:53:00,54.4,39.0,30.22,ESE,113,0.0,5.0,57,0.00,,,0.08,weatherlink.com 1.10,2013-05-25 17:53:00,
2013-05-25 13:08:00,54.6,39.0,30.23,ESE,116,0.0,8.0,56,0.00,,,0.08,weatherlink.com 1.10,2013-05-25 18:08:00,
2013-05-25 13:23:00,54.4,39.0,30.25,SE,140,0.0,7.0,56,0.00,,,0.08,weatherlink.com 1.10,2013-05-25 18:23:00,
2013-05-25 13:38:00,54.0,40.0,30.26,SSE,149,2.0,6.0,59,0.00,,,0.08,weatherlink.com 1.10,2013-05-25 18:38:00,
2013-05-25 13:53:00,53.8,42.0,30.25,SE,140,3.0,6.0,64,0.00,,,0.08,weatherlink.com 1.10,2013-05-25 18:53:00,
2013-05-25 14:08:00,53.7,42.0,30.25,SE,126,1.0,5.0,64,0.00,,,0.08,weatherlink.com 1.10,2013-05-25 19:08:00,
2013-05-25 14:23:00,53.9,42.0,30.25,SE,137,4.0,5.0,64,0.00,,,0.08,weatherlink.com 1.10,2013-05-25 19:23:00,
2013-05-25 14:38:00,54.0,42.0,30.26,SE,134,1.0,4.0,65,0.00,,,0.08,weatherlink.com 1.10,2013-05-25 19:38:00,
2013-05-25 14:53:00,53.7,42.0,30.26,SE,139,3.0,5.0,65,0.00,,,0.08,weatherlink.com 1.10,2013-05-25 19:53:00,
2013-05-25 15:08:00,53.3,43.0,30.26,SE,140,2.0,4.0,67,0.00,,,0.08,weatherlink.com 1.10,2013-05-25 20:08:00,
2013-05-25 15:23:00,52.8,43.0,30.27,SSE,158,2.0,3.0,69,0.01,,,0.09,weatherlink.com 1.10,2013-05-25 20:23:00,
2013-05-25 15:38:00,52.5,44.0,30.26,SSE,148,0.0,2.0,74,0.01,,,0.09,weatherlink.com 1.10,2013-05-25 20:38:00,
2013-05-25 15:53:00,52.5,45.0,30.26,SSE,148,0.0,0.0,76,0.02,,,0.10,weatherlink.com 1.10,2013-05-25 20:53:00,
2013-05-25 16:08:00,52.4,46.0,30.25,SE,146,0.0,0.0,79,0.02,,,0.10,weatherlink.com 1.10,2013-05-25 21:08:00,
2013-05-25 16:23:00,52.3,45.0,30.25,SE,138,0.0,0.0,76,0.01,,,0.10,weatherlink.com 1.10,2013-05-25 21:23:00,
2013-05-25 16:38:00,52.1,44.0,30.25,SE,136,2.0,3.0,74,0.01,,,0.10,weatherlink.com 1.10,2013-05-25 21:38:00,
2013-05-25 16:53:00,51.9,44.0,30.25,SE,135,2.0,3.0,74,0.00,,,0.10,weatherlink.com 1.10,2013-05-25 21:53:00,
2013-05-25 17:08:00,51.8,44.0,30.25,SE,142,3.0,4.0,74,0.00,,,0.10,weatherlink.com 1.10,2013-05-25 22:08:00,
2013-05-25 17:23:00,51.8,44.0,30.24,SE,142,1.0,4.0,76,0.00,,,0.10,weatherlink.com 1.10,2013-05-25 22:23:00,
2013-05-25 17:38:00,52.0,44.0,30.25,SSE,161,0.0,3.0,74,0.00,,,0.10,weatherlink.com 1.10,2013-05-25 22:38:00,
2013-05-25 17:53:00,52.3,44.0,30.24,SE,146,1.0,3.0,74,0.00,,,0.10,weatherlink.com 1.10,2013-05-25 22:53:00,
2013-05-25 18:08:00,52.4,44.0,30.25,SE,133,3.0,4.0,73,0.00,,,0.10,weatherlink.com 1.10,2013-05-25 23:08:00,
2013-05-25 18:23:00,52.9,44.0,30.24,SE,136,2.0,4.0,72,0.00,,,0.10,weatherlink.com 1.10,2013-05-25 23:23:00,
2013-05-25 18:38:00,52.9,44.0,30.24,SE,137,4.0,4.0,72,0.00,,,0.10,weatherlink.com 1.10,2013-05-25 23:38:00,
2013-05-25 18:53:00,52.8,43.0,30.24,SE,140,2.0,4.0,69,0.00,,,0.10,weatherlink.com 1.10,2013-05-25 23:53:00,
2013-05-25 19:08:00,52.8,44.0,30.24,SE,131,2.0,5.0,73,0.00,,,0.10,weatherlink.com 1.10,2013-05-26 00:08:00,
2013-05-25 19:23:00,52.6,41.0,30.23,SSE,161,1.0,8.0,66,0.00,,,0.10,weatherlink.com 1.10,2013-05-26 00:23:00,
2013-05-25 19:38:00,52.4,41.0,30.23,SE,142,5.0,6.0,65,0.00,,,0.10,weatherlink.com 1.10,2013-05-26 00:38:00,
2013-05-25 19:53:00,52.1,42.0,30.23,SSE,153,2.0,7.0,68,0.00,,,0.10,weatherlink.com 1.10,2013-05-26 00:53:00,
2013-05-25 20:08:00,51.5,42.0,30.23,SE,140,1.0,4.0,70,0.00,,,0.10,weatherlink.com 1.10,2013-05-26 01:08:00,
2013-05-25 20:23:00,51.0,42.0,30.23,SE,133,0.0,4.0,71,0.00,,,0.10,weatherlink.com 1.10,2013-05-26 01:23:00,
2013-05-25 20:38:00,50.6,42.0,30.24,SE,133,0.0,1.0,73,0.00,,,0.10,weatherlink.com 1.10,2013-05-26 01:38:00,
2013-05-25 20:53:00,50.6,43.0,30.23,SE,134,1.0,3.0,75,0.00,,,0.10,weatherlink.com 1.10,2013-05-26 01:53:00,
2013-05-25 21:08:00,50.5,43.0,30.24,SE,134,0.0,0.0,75,0.00,,,0.10,weatherlink.com 1.10,2013-05-26 02:08:00,
2013-05-25 21:23:00,50.3,42.0,30.24,SE,134,0.0,0.0,73,0.00,,,0.10,weatherlink.com 1.10,2013-05-26 02:23:00,
2013-05-25 21:38:00,50.3,42.0,30.24,SE,134,0.0,0.0,74,0.00,,,0.10,weatherlink.com 1.10,2013-05-26 02:38:00,
2013-05-25 21:53:00,50.1,42.0,30.24,SE,134,0.0,0.0,74,0.00,,,0.10,weatherlink.com 1.10,2013-05-26 02:53:00,
2013-05-25 22:08:00,49.8,42.0,30.24,SE,134,0.0,0.0,74,0.00,,,0.10,weatherlink.com 1.10,2013-05-26 03:08:00,
2013-05-25 22:23:00,49.2,41.0,30.24,SE,129,0.0,0.0,74,0.00,,,0.10,weatherlink.com 1.10,2013-05-26 03:23:00,
2013-05-25 22:38:00,48.6,41.0,30.23,SE,129,0.0,0.0,74,0.00,,,0.10,weatherlink.com 1.10,2013-05-26 03:38:00,
2013-05-25 22:53:00,48.6,41.0,30.23,SE,126,0.0,1.0,74,0.00,,,0.10,weatherlink.com 1.10,2013-05-26 03:53:00,
2013-05-25 23:08:00,48.4,40.0,30.22,ESE,121,0.0,0.0,74,0.00,,,0.10,weatherlink.com 1.10,2013-05-26 04:08:00,
2013-05-25 23:23:00,48.3,40.0,30.22,ESE,117,0.0,0.0,74,0.00,,,0.10,weatherlink.com 1.10,2013-05-26 04:23:00,
2013-05-25 23:38:00,48.5,40.0,30.22,ESE,107,0.0,0.0,73,0.00,,,0.10,weatherlink.com 1.10,2013-05-26 04:38:00,
2013-05-25 23:53:00,47.9,40.0,30.23,NE,55,0.0,2.0,75,0.00,,,0.10,weatherlink.com 1.10,2013-05-26 04:53:00,